createdAt,value
2018-11-23T00:01:35.089Z,25.73
2018-11-23T00:04:02.885Z,25.00
2018-11-23T00:06:30.667Z,25.03
2018-11-23T00:08:58.468Z,28.23
2018-11-23T00:11:26.305Z,28.90
2018-11-23T00:13:54.085Z,27.20
2018-11-23T00:16:21.917Z,27.33
2018-11-23T00:18:49.695Z,28.43
2018-11-23T00:21:17.490Z,25.27
2018-11-23T00:23:45.308Z,25.57
2018-11-23T00:26:13.078Z,23.13
2018-11-23T00:28:40.914Z,22.47
2018-11-23T00:31:09.026Z,21.70
2018-11-23T00:33:36.942Z,22.00
2018-11-23T00:36:05.582Z,23.37
2018-11-23T00:38:33.680Z,23.07
2018-11-23T00:41:01.454Z,24.00
2018-11-23T00:43:29.282Z,23.27
2018-11-23T00:45:57.201Z,21.43
2018-11-23T00:48:25.002Z,23.93
2018-11-23T00:50:52.812Z,25.13
2018-11-23T00:53:20.627Z,27.27
2018-11-23T00:55:49.174Z,29.90
2018-11-23T00:58:17.267Z,51.07
2018-11-23T01:00:45.089Z,29.33
2018-11-23T01:03:12.912Z,26.27
2018-11-23T01:05:40.817Z,27.07
2018-11-23T01:08:08.988Z,26.43
2018-11-23T01:10:36.836Z,28.60
2018-11-23T01:13:05.326Z,30.40
2018-11-23T01:15:33.150Z,43.57
2018-11-23T01:18:01.125Z,35.43
2018-11-23T01:20:29.196Z,25.40
2018-11-23T01:22:57.551Z,25.30
2018-11-23T01:25:26.158Z,27.90
2018-11-23T01:27:54.681Z,23.93
2018-11-23T01:30:23.854Z,22.13
2018-11-23T01:32:52.561Z,25.80
2018-11-23T01:35:20.386Z,26.33
2018-11-23T01:37:48.146Z,22.47
2018-11-23T01:40:18.244Z,22.90
2018-11-23T01:42:46.373Z,20.10
2018-11-23T01:45:14.440Z,21.00
2018-11-23T01:47:42.398Z,24.53
2018-11-23T01:50:12.427Z,21.60
2018-11-23T01:52:40.302Z,22.43
2018-11-23T01:55:09.298Z,21.20
2018-11-23T01:57:37.706Z,21.83
2018-11-23T02:00:06.655Z,20.23
2018-11-23T02:02:34.778Z,20.10
2018-11-23T02:05:02.631Z,18.67
2018-11-23T02:07:30.462Z,21.07
2018-11-23T02:09:58.261Z,20.73
2018-11-23T02:12:26.094Z,17.63
2018-11-23T02:14:54.032Z,20.63
2018-11-23T02:17:23.459Z,21.03
2018-11-23T02:19:52.851Z,18.73
2018-11-23T02:22:20.674Z,21.23
2018-11-23T02:24:48.461Z,19.47
2018-11-23T02:27:16.394Z,17.33
2018-11-23T02:29:44.960Z,18.43
2018-11-23T02:32:12.142Z,17.57
2018-11-23T02:34:39.970Z,19.50
2018-11-23T02:37:07.750Z,19.37
2018-11-23T02:39:35.630Z,18.57
2018-11-23T02:42:03.747Z,23.70
2018-11-23T02:44:31.728Z,18.73
2018-11-23T02:46:59.602Z,17.90
2018-11-23T02:49:27.406Z,18.27
2018-11-23T02:51:55.256Z,21.20
2018-11-23T02:54:23.022Z,17.73
2018-11-23T02:56:50.810Z,17.57
2018-11-23T02:59:18.598Z,16.60
2018-11-23T03:01:46.384Z,19.27
2018-11-23T03:04:14.206Z,17.73
2018-11-23T03:06:42.074Z,18.00
2018-11-23T03:09:10.214Z,19.77
2018-11-23T03:11:40.039Z,19.63
2018-11-23T03:14:08.153Z,18.37
2018-11-23T03:16:36.313Z,19.67
2018-11-23T03:19:04.520Z,18.33
2018-11-23T03:21:32.560Z,17.17
2018-11-23T03:24:00.378Z,16.73
2018-11-23T03:26:28.648Z,19.87
2018-11-23T03:28:56.449Z,27.30
2018-11-23T03:31:25.153Z,27.77
2018-11-23T03:33:53.364Z,31.43
2018-11-23T03:36:21.766Z,36.13
2018-11-23T03:38:50.506Z,35.37
2018-11-23T03:41:18.305Z,37.23
2018-11-23T03:43:46.601Z,38.20
2018-11-23T03:46:14.546Z,32.47
2018-11-23T03:48:42.392Z,38.63
2018-11-23T03:51:10.277Z,35.97
2018-11-23T03:53:38.330Z,28.23
2018-11-23T03:56:06.390Z,25.23
2018-11-23T03:58:34.848Z,22.10
2018-11-23T04:01:02.664Z,23.33
2018-11-23T04:03:30.467Z,17.53
2018-11-23T04:05:58.289Z,23.63
2018-11-23T04:08:26.058Z,28.13
2018-11-23T04:10:53.830Z,34.60
2018-11-23T04:13:21.628Z,38.87
2018-11-23T04:15:49.410Z,22.03
2018-11-23T04:18:17.486Z,19.20
2018-11-23T04:20:55.237Z,18.80
2018-11-23T04:23:23.038Z,18.43
2018-11-23T04:25:50.825Z,17.77
2018-11-23T04:28:18.605Z,19.17
2018-11-23T04:30:46.383Z,17.80
2018-11-23T04:33:14.187Z,19.27
2018-11-23T04:35:42.108Z,19.80
2018-11-23T04:38:09.894Z,19.40
2018-11-23T04:40:37.676Z,17.00
2018-11-23T04:43:05.611Z,16.50
2018-11-23T04:45:33.724Z,17.43
2018-11-23T04:48:02.502Z,19.17
2018-11-23T04:52:54.426Z,24.13
2018-11-23T04:55:22.225Z,20.07
2018-11-23T04:57:53.792Z,15.00
2018-11-23T05:00:18.102Z,14.97
2018-11-23T05:02:46.633Z,20.03
2018-11-23T05:05:14.581Z,37.17
2018-11-23T05:07:43.789Z,24.17
2018-11-23T05:10:12.677Z,22.97
2018-11-23T05:12:40.645Z,18.77
2018-11-23T05:15:09.853Z,28.63
2018-11-23T05:17:37.687Z,17.73
2018-11-23T05:20:06.379Z,15.83
2018-11-23T05:22:34.673Z,18.13
2018-11-23T05:25:02.534Z,15.27
2018-11-23T05:27:30.501Z,15.33
2018-11-23T05:29:58.987Z,14.00
2018-11-23T05:32:26.870Z,13.90
2018-11-23T05:34:54.667Z,12.73
2018-11-23T05:37:22.447Z,14.03
2018-11-23T05:39:50.740Z,13.07
2018-11-23T05:42:18.529Z,13.10
2018-11-23T05:44:46.419Z,16.30
2018-11-23T05:47:14.238Z,17.67
2018-11-23T05:49:42.052Z,16.73
2018-11-23T05:52:09.825Z,24.17
2018-11-23T05:54:37.595Z,22.53
2018-11-23T05:57:05.650Z,19.70
2018-11-23T05:59:33.534Z,17.23
2018-11-23T06:02:01.366Z,18.37
2018-11-23T06:04:29.165Z,15.93
2018-11-23T06:06:56.959Z,19.40
2018-11-23T06:09:24.758Z,21.10
2018-11-23T06:11:52.526Z,16.43
2018-11-23T06:14:20.318Z,20.50
2018-11-23T06:16:48.139Z,21.53
2018-11-23T06:19:15.943Z,21.90
2018-11-23T06:21:43.705Z,18.43
2018-11-23T06:24:11.506Z,17.00
2018-11-23T06:26:39.357Z,19.60
2018-11-23T06:29:07.182Z,20.10
2018-11-23T06:31:35.193Z,14.83
2018-11-23T06:34:03.020Z,19.40
2018-11-23T06:36:30.822Z,17.40
2018-11-23T06:38:58.616Z,21.30
2018-11-23T06:41:26.495Z,22.37
2018-11-23T06:43:54.305Z,21.53
2018-11-23T06:46:22.409Z,20.70
2018-11-23T06:48:50.285Z,26.70
2018-11-23T06:51:18.058Z,23.93
2018-11-23T06:53:45.857Z,33.80
2018-11-23T06:56:13.670Z,42.13
2018-11-23T06:58:41.803Z,44.77
2018-11-23T07:01:09.630Z,37.00
2018-11-23T07:03:37.523Z,42.03
2018-11-23T07:06:05.501Z,32.83
2018-11-23T07:08:33.266Z,39.83
2018-11-23T07:11:02.329Z,40.37
2018-11-23T07:13:30.705Z,30.27
2018-11-23T07:15:58.550Z,28.70
2018-11-23T07:18:26.678Z,23.67
2018-11-23T07:20:55.011Z,21.37
2018-11-23T07:23:23.120Z,23.17
2018-11-23T07:25:52.279Z,28.03
2018-11-23T07:28:21.265Z,16.53
2018-11-23T07:30:49.353Z,15.67
2018-11-23T07:33:17.224Z,16.07
2018-11-23T07:35:45.334Z,12.57
2018-11-23T07:38:13.565Z,16.30
2018-11-23T07:40:53.978Z,17.63
2018-11-23T07:43:23.671Z,18.20
2018-11-23T07:45:51.569Z,19.53
2018-11-23T07:48:19.546Z,19.20
2018-11-23T07:50:48.287Z,18.27
2018-11-23T07:53:16.238Z,13.00
2018-11-23T07:55:44.350Z,14.03
2018-11-23T07:58:12.610Z,11.90
2018-11-23T08:00:40.989Z,17.83
2018-11-23T08:03:09.069Z,21.70
2018-11-23T08:05:37.137Z,12.90
2018-11-23T08:08:07.280Z,13.57
2018-11-23T08:10:34.746Z,14.53
2018-11-23T08:13:02.655Z,29.33
2018-11-23T08:15:30.482Z,32.07
2018-11-23T08:17:58.294Z,38.77
2018-11-23T08:20:26.243Z,31.77
2018-11-23T08:22:54.117Z,45.93
2018-11-23T08:25:22.941Z,55.80
2018-11-23T08:27:52.106Z,49.63
2018-11-23T08:30:28.065Z,31.50
2018-11-23T08:32:56.149Z,45.73
2018-11-23T08:35:23.962Z,51.43
2018-11-23T08:37:51.970Z,44.83
2018-11-23T08:40:24.712Z,30.87
2018-11-23T08:45:32.527Z,15.10
2018-11-23T08:48:00.638Z,14.20
2018-11-23T08:50:29.554Z,13.13
2018-11-23T08:52:57.494Z,9.23
2018-11-23T08:55:25.788Z,9.80
2018-11-23T08:57:55.644Z,10.80
2018-11-23T09:00:25.673Z,16.47
2018-11-23T09:02:54.847Z,18.77
2018-11-23T09:05:22.639Z,15.03
2018-11-23T09:07:51.764Z,16.30
2018-11-23T09:10:21.102Z,17.63
2018-11-23T09:12:51.098Z,20.60
2018-11-23T09:15:18.898Z,19.23
2018-11-23T09:17:46.709Z,27.57
2018-11-23T09:20:15.292Z,13.93
2018-11-23T09:22:43.094Z,13.00
2018-11-23T09:25:14.509Z,13.70
2018-11-23T09:27:42.378Z,16.90
2018-11-23T09:30:14.638Z,18.17
2018-11-23T09:32:42.669Z,16.60
2018-11-23T09:35:10.502Z,15.53
2018-11-23T09:37:38.955Z,14.77
2018-11-23T09:40:09.170Z,17.47
2018-11-23T09:42:37.482Z,15.57
2018-11-23T09:45:07.538Z,15.83
2018-11-23T09:47:35.365Z,14.07
2018-11-23T09:50:03.992Z,14.40
2018-11-23T09:52:31.846Z,13.97
2018-11-23T09:54:59.654Z,15.23
2018-11-23T09:57:27.460Z,14.27
2018-11-23T09:59:55.219Z,16.13
2018-11-23T10:02:23.021Z,19.93
2018-11-23T10:04:50.816Z,18.87
2018-11-23T10:07:18.606Z,19.57
2018-11-23T10:09:46.406Z,17.23
2018-11-23T10:12:14.205Z,17.17
2018-11-23T10:14:42.037Z,16.90
2018-11-23T10:17:09.865Z,17.07
2018-11-23T10:19:37.858Z,18.63
2018-11-23T10:22:05.760Z,15.70
2018-11-23T10:24:34.570Z,15.87
2018-11-23T10:27:03.385Z,15.87
2018-11-23T10:29:32.523Z,16.77
2018-11-23T10:32:00.807Z,18.27
2018-11-23T10:34:28.590Z,16.63
2018-11-23T10:36:56.391Z,17.57
2018-11-23T10:39:24.170Z,17.77
2018-11-23T10:41:52.229Z,17.87
2018-11-23T10:44:20.023Z,14.97
2018-11-23T10:46:48.262Z,16.60
2018-11-23T10:49:16.129Z,17.73
2018-11-23T10:51:43.954Z,15.87
2018-11-23T10:54:11.857Z,18.50
2018-11-23T10:56:39.644Z,17.10
2018-11-23T10:59:07.642Z,17.73
2018-11-23T11:01:40.929Z,15.97
2018-11-23T11:04:14.207Z,17.20
2018-11-23T11:06:52.993Z,15.40
2018-11-23T11:09:20.777Z,14.83
2018-11-23T11:11:48.569Z,16.40
2018-11-23T11:14:16.374Z,16.03
2018-11-23T11:16:44.195Z,17.47
2018-11-23T11:19:12.018Z,17.67
2018-11-23T11:21:39.810Z,15.30
2018-11-23T11:24:07.696Z,14.97
2018-11-23T11:26:35.547Z,15.03
2018-11-23T11:29:03.387Z,14.70
2018-11-23T11:31:31.284Z,18.67
2018-11-23T11:33:59.106Z,14.23
2018-11-23T11:36:26.979Z,15.43
2018-11-23T11:38:54.798Z,14.97
2018-11-23T11:41:22.648Z,14.80
2018-11-23T11:43:50.430Z,15.43
2018-11-23T11:46:18.217Z,17.97
2018-11-23T11:48:45.969Z,18.07
2018-11-23T11:51:14.763Z,18.17
2018-11-23T11:53:41.730Z,14.90
2018-11-23T11:56:09.748Z,15.23
2018-11-23T11:58:37.838Z,16.73
2018-11-23T12:01:05.778Z,17.53
2018-11-23T12:03:33.600Z,15.40
2018-11-23T12:06:01.388Z,16.87
2018-11-23T12:08:29.199Z,18.97
2018-11-23T12:10:56.990Z,18.23
2018-11-23T12:13:24.822Z,21.30
2018-11-23T12:15:52.570Z,21.27
2018-11-23T12:18:20.373Z,28.07
2018-11-23T12:20:48.197Z,22.93
2018-11-23T12:23:16.033Z,18.50
2018-11-23T12:25:43.962Z,17.93
2018-11-23T12:28:11.747Z,22.13
2018-11-23T12:30:39.579Z,22.27
2018-11-23T12:33:07.522Z,29.07
2018-11-23T12:35:35.356Z,23.33
2018-11-23T12:38:03.159Z,24.03
2018-11-23T12:40:30.965Z,23.67
2018-11-23T12:42:58.742Z,22.77
2018-11-23T12:45:26.713Z,23.00
2018-11-23T12:47:55.541Z,19.87
2018-11-23T12:50:23.754Z,20.60
2018-11-23T12:52:51.655Z,19.57
2018-11-23T12:55:19.794Z,23.07
2018-11-23T12:57:47.598Z,19.90
2018-11-23T13:00:22.122Z,19.00
2018-11-23T13:02:52.074Z,19.47
2018-11-23T13:05:20.846Z,19.47
2018-11-23T13:07:49.381Z,19.03
2018-11-23T13:10:17.173Z,20.47
2018-11-23T13:12:50.681Z,21.33
2018-11-23T13:15:13.966Z,18.53
2018-11-23T13:17:41.775Z,19.13
2018-11-23T13:20:11.477Z,19.53
2018-11-23T13:22:39.633Z,19.10
2018-11-23T13:25:09.412Z,19.87
2018-11-23T13:27:37.744Z,19.50
2018-11-23T13:30:10.013Z,19.03
2018-11-23T13:32:37.897Z,18.87
2018-11-23T13:35:08.127Z,20.87
2018-11-23T13:37:35.991Z,17.40
2018-11-23T13:40:04.914Z,19.67
2018-11-23T13:42:32.687Z,18.37
2018-11-23T13:45:00.514Z,18.93
2018-11-23T13:47:28.361Z,19.83
2018-11-23T13:49:56.267Z,17.50
2018-11-23T13:52:24.081Z,18.97
2018-11-23T13:54:51.925Z,18.07
2018-11-23T13:57:19.717Z,20.43
2018-11-23T13:59:47.554Z,19.77
2018-11-23T14:02:15.315Z,20.57
2018-11-23T14:04:43.104Z,19.60
2018-11-23T14:07:10.910Z,17.67
2018-11-23T14:09:38.770Z,19.17
2018-11-23T14:12:06.772Z,19.57
2018-11-23T14:14:34.564Z,18.67
2018-11-23T14:17:02.346Z,18.30
2018-11-23T14:19:30.119Z,20.20
2018-11-23T14:21:57.889Z,20.60
2018-11-23T14:24:25.698Z,22.93
2018-11-23T14:26:53.478Z,20.53
2018-11-23T14:29:21.553Z,19.97
2018-11-23T14:31:49.320Z,20.90
2018-11-23T14:34:17.153Z,22.00
2018-11-23T14:36:45.053Z,21.37
2018-11-23T14:39:13.115Z,20.57
2018-11-23T14:41:40.869Z,20.57
2018-11-23T14:44:08.630Z,19.00
2018-11-23T14:46:36.683Z,20.17
2018-11-23T14:49:04.925Z,20.23
2018-11-23T14:51:32.726Z,20.37
2018-11-23T14:54:00.505Z,19.87
2018-11-23T14:56:28.259Z,20.17
2018-11-23T14:58:56.068Z,19.83
2018-11-23T15:01:24.205Z,22.10
2018-11-23T15:03:51.962Z,20.63
2018-11-23T15:06:19.734Z,20.37
2018-11-23T15:08:47.662Z,22.63
2018-11-23T15:11:15.443Z,21.53
2018-11-23T15:13:43.319Z,23.00
2018-11-23T15:16:11.121Z,23.13
2018-11-23T15:18:39.077Z,21.97
2018-11-23T15:21:07.058Z,22.63
2018-11-23T15:23:34.891Z,24.83
2018-11-23T15:26:02.659Z,23.50
2018-11-23T15:28:30.487Z,24.03
2018-11-23T15:30:58.292Z,23.43
2018-11-23T15:33:26.086Z,23.60
2018-11-23T15:35:53.918Z,25.40
2018-11-23T15:38:22.922Z,21.73
2018-11-23T15:40:50.701Z,25.43
2018-11-23T15:43:19.481Z,22.87
2018-11-23T15:45:47.333Z,22.87
2018-11-23T15:48:16.239Z,28.67
2018-11-23T15:50:44.449Z,35.07
2018-11-23T15:53:15.797Z,31.23
2018-11-23T15:55:43.694Z,28.37
2018-11-23T15:58:12.832Z,26.43
2018-11-23T16:00:42.076Z,29.57
2018-11-23T16:03:11.157Z,26.50
2018-11-23T16:05:39.216Z,25.87
2018-11-23T16:08:10.394Z,27.93
2018-11-23T16:10:38.767Z,28.10
2018-11-23T16:13:11.643Z,27.57
2018-11-23T16:15:39.275Z,27.47
2018-11-23T16:18:07.608Z,26.87
2018-11-23T16:20:38.059Z,30.77
2018-11-23T16:23:07.973Z,29.17
2018-11-23T16:25:35.802Z,28.07
2018-11-23T16:28:04.809Z,27.43
2018-11-23T16:30:33.987Z,29.60
2018-11-23T16:33:03.265Z,33.17
2018-11-23T16:35:33.388Z,30.60
2018-11-23T16:38:02.774Z,33.60
2018-11-23T16:40:31.700Z,51.17
2018-11-23T16:43:00.074Z,52.00
2018-11-23T16:45:29.254Z,45.27
2018-11-23T16:47:57.944Z,37.67
2018-11-23T16:50:26.176Z,36.33
2018-11-23T16:52:54.284Z,36.73
2018-11-23T16:55:22.562Z,32.27
2018-11-23T16:58:06.465Z,30.97
2018-11-23T17:00:36.614Z,34.43
2018-11-23T17:03:06.325Z,34.40
2018-11-23T17:05:35.791Z,42.70
2018-11-23T17:08:03.981Z,83.83
2018-11-23T17:10:31.849Z,83.17
2018-11-23T17:12:59.642Z,35.67
2018-11-23T17:15:28.355Z,35.33
2018-11-23T17:17:56.242Z,39.13
2018-11-23T17:20:25.352Z,38.17
2018-11-23T17:22:54.503Z,38.17
2018-11-23T17:25:23.113Z,41.53
2018-11-23T17:27:51.711Z,40.60
2018-11-23T17:30:21.708Z,41.90
2018-11-23T17:32:49.606Z,40.93
2018-11-23T17:35:19.155Z,40.13
2018-11-23T17:37:46.932Z,43.00
2018-11-23T17:40:16.955Z,43.83
2018-11-23T17:42:47.346Z,46.37
2018-11-23T17:45:20.153Z,45.57
2018-11-23T17:47:50.307Z,40.87
2018-11-23T17:50:21.132Z,38.53
2018-11-23T17:52:49.449Z,38.80
2018-11-23T17:55:17.510Z,37.17
2018-11-23T17:57:50.420Z,37.83
2018-11-23T18:00:24.088Z,40.20
2018-11-23T18:02:54.525Z,40.87
2018-11-23T18:05:23.482Z,39.00
2018-11-23T18:07:51.832Z,38.03
2018-11-23T18:10:21.365Z,43.43
2018-11-23T18:12:49.533Z,47.57
2018-11-23T18:15:19.554Z,43.90
2018-11-23T18:17:48.052Z,44.30
2018-11-23T18:20:17.950Z,41.03
2018-11-23T18:22:46.316Z,44.77
2018-11-23T18:25:15.615Z,46.30
2018-11-23T18:27:43.994Z,49.10
2018-11-23T18:30:12.335Z,48.60
2018-11-23T18:32:40.646Z,49.93
2018-11-23T18:35:09.818Z,46.13
2018-11-23T18:37:37.590Z,67.57
2018-11-23T18:40:07.565Z,60.67
2018-11-23T18:42:35.345Z,49.83
2018-11-23T18:45:03.451Z,48.23
2018-11-23T18:47:31.217Z,46.53
2018-11-23T18:49:59.021Z,51.83
2018-11-23T18:52:26.822Z,46.63
2018-11-23T18:54:54.685Z,46.23
2018-11-23T18:57:22.495Z,42.67
2018-11-23T18:59:52.961Z,41.87
2018-11-23T19:02:21.385Z,39.23
2018-11-23T19:04:49.607Z,42.30
2018-11-23T19:07:36.838Z,42.17
2018-11-23T19:10:14.704Z,44.33
2018-11-23T19:12:51.807Z,40.53
2018-11-23T19:15:25.225Z,51.67
2018-11-23T19:17:49.756Z,43.60
2018-11-23T19:20:24.067Z,40.07
2018-11-23T19:22:53.011Z,43.00
2018-11-23T19:25:23.639Z,41.53
2018-11-23T19:27:53.527Z,44.90
2018-11-23T19:30:28.541Z,45.63
2018-11-23T19:32:52.417Z,44.97
2018-11-23T19:35:20.631Z,39.63
2018-11-23T19:37:50.259Z,43.20
2018-11-23T19:40:18.354Z,44.80
2018-11-23T19:42:46.694Z,39.93
2018-11-23T19:45:41.221Z,42.23
2018-11-23T19:48:12.005Z,41.47
2018-11-23T19:53:45.421Z,40.43
2018-11-23T19:56:13.847Z,39.93
2018-11-23T19:58:42.134Z,37.77
2018-11-23T20:01:16.168Z,38.30
2018-11-23T20:03:44.038Z,37.00
2018-11-23T20:06:11.886Z,38.07
2018-11-23T20:08:39.842Z,38.57
2018-11-23T20:11:07.702Z,41.47
2018-11-23T20:13:35.493Z,44.80
2018-11-23T20:16:03.300Z,38.47
2018-11-23T20:18:31.146Z,41.57
2018-11-23T20:20:58.927Z,44.20
2018-11-23T20:23:26.768Z,44.53
2018-11-23T20:25:54.870Z,36.57
2018-11-23T20:28:22.667Z,37.07
2018-11-23T20:30:50.502Z,37.83
2018-11-23T20:33:19.051Z,40.10
2018-11-23T20:35:46.833Z,37.00
2018-11-23T20:38:14.669Z,34.70
2018-11-23T20:40:42.478Z,35.00
2018-11-23T20:43:10.565Z,34.80
2018-11-23T20:45:38.519Z,35.03
2018-11-23T20:48:06.402Z,31.27
2018-11-23T20:50:34.165Z,33.20
2018-11-23T20:53:02.214Z,36.17
2018-11-23T20:55:30.253Z,34.10
2018-11-23T20:57:58.230Z,35.33
2018-11-23T21:00:26.210Z,36.40
2018-11-23T21:02:54.771Z,33.97
2018-11-23T21:05:23.190Z,39.20
2018-11-23T21:07:51.476Z,38.60
2018-11-23T21:10:21.490Z,35.03
2018-11-23T21:12:49.447Z,33.37
2018-11-23T21:15:31.813Z,35.83
2018-11-23T21:18:02.648Z,33.27
2018-11-23T21:20:30.567Z,35.30
2018-11-23T21:22:58.850Z,34.03
2018-11-23T21:25:27.094Z,34.20
2018-11-23T21:27:55.045Z,39.83
2018-11-23T21:30:23.437Z,44.63
2018-11-23T21:32:52.023Z,43.40
2018-11-23T21:35:19.939Z,41.13
2018-11-23T21:37:47.761Z,42.80
2018-11-23T21:40:16.122Z,39.03
2018-11-23T21:42:43.968Z,38.20
2018-11-23T21:45:16.669Z,29.63
2018-11-23T21:47:44.517Z,24.77
2018-11-23T21:50:24.621Z,21.87
2018-11-23T21:52:45.074Z,21.13
2018-11-23T21:55:15.071Z,19.50
2018-11-23T21:57:42.856Z,20.47
2018-11-23T22:00:12.096Z,19.90
2018-11-23T22:02:39.887Z,20.53
2018-11-23T22:05:08.122Z,18.60
2018-11-23T22:07:35.921Z,18.70
2018-11-23T22:10:06.406Z,18.17
2018-11-23T22:12:34.262Z,18.77
2018-11-23T22:15:02.093Z,17.17
2018-11-23T22:17:29.906Z,18.17
2018-11-23T22:19:57.657Z,19.27
2018-11-23T22:22:25.469Z,19.10
2018-11-23T22:24:53.297Z,18.33
2018-11-23T22:27:21.091Z,18.40
2018-11-23T22:29:49.037Z,17.60
2018-11-23T22:32:16.810Z,17.77
2018-11-23T22:34:44.641Z,18.10
2018-11-23T22:37:12.487Z,16.63
2018-11-23T22:39:40.700Z,18.53
2018-11-23T22:42:08.494Z,17.33
2018-11-23T22:44:36.333Z,17.73
2018-11-23T22:47:04.695Z,19.23
2018-11-23T22:49:32.476Z,21.20
2018-11-23T22:52:00.306Z,19.20
2018-11-23T22:54:28.096Z,18.87
2018-11-23T22:56:55.919Z,23.60
2018-11-23T22:59:24.069Z,24.50
2018-11-23T23:01:57.586Z,22.13
2018-11-23T23:04:25.421Z,20.10
2018-11-23T23:06:53.363Z,17.67
2018-11-23T23:09:21.206Z,19.97
2018-11-23T23:11:49.049Z,19.63
2018-11-23T23:14:16.864Z,19.77
2018-11-23T23:16:44.699Z,20.70
2018-11-23T23:19:12.705Z,18.53
2018-11-23T23:21:40.613Z,19.33
2018-11-23T23:24:11.880Z,22.53
2018-11-23T23:26:36.822Z,21.97
2018-11-23T23:29:05.800Z,20.50
2018-11-23T23:31:33.601Z,21.47
2018-11-23T23:34:03.300Z,22.73
2018-11-23T23:36:31.114Z,23.30
2018-11-23T23:38:58.929Z,20.87
2018-11-23T23:41:26.698Z,20.47
2018-11-23T23:43:54.490Z,21.67
2018-11-23T23:46:22.295Z,18.27
2018-11-23T23:48:50.110Z,19.50
2018-11-23T23:51:18.898Z,18.47
2018-11-23T23:53:46.670Z,18.63
2018-11-23T23:56:14.571Z,19.17
2018-11-23T23:58:42.564Z,18.80
